createdAt,value
2023-03-02T00:02:05.497Z,5.20
2023-03-02T00:04:52.886Z,8.73
2023-03-02T00:07:26.483Z,6.57
2023-03-02T00:09:55.020Z,8.70
2023-03-02T00:12:24.329Z,5.57
2023-03-02T00:14:52.770Z,5.50
2023-03-02T00:17:28.139Z,5.45
2023-03-02T00:20:11.571Z,8.18
2023-03-02T00:22:44.724Z,5.57
2023-03-02T00:25:14.473Z,6.18
2023-03-02T00:27:43.862Z,4.55
2023-03-02T00:30:16.162Z,6.68
2023-03-02T00:32:46.070Z,6.18
2023-03-02T00:35:14.708Z,6.88
2023-03-02T00:37:44.241Z,7.70
2023-03-02T00:40:13.196Z,8.45
2023-03-02T00:42:41.995Z,6.63
2023-03-02T00:45:10.688Z,6.60
2023-03-02T00:47:40.641Z,5.25
2023-03-02T00:50:10.951Z,7.63
2023-03-02T00:52:39.771Z,6.43
2023-03-02T00:55:09.583Z,4.32
2023-03-02T00:57:38.733Z,4.95
2023-03-02T01:00:09.010Z,5.15
2023-03-02T01:02:44.704Z,3.97
2023-03-02T01:05:17.265Z,4.50
2023-03-02T01:07:46.126Z,5.47
2023-03-02T01:10:15.054Z,5.68
2023-03-02T01:12:44.159Z,5.13
2023-03-02T01:15:12.876Z,5.53
2023-03-02T01:17:43.316Z,2.63
2023-03-02T01:20:12.865Z,3.75
2023-03-02T01:22:42.515Z,4.18
2023-03-02T01:25:11.903Z,2.90
2023-03-02T01:27:40.691Z,3.63
2023-03-02T01:30:10.224Z,3.28
2023-03-02T01:32:39.090Z,6.05
2023-03-02T01:35:08.111Z,4.05
2023-03-02T01:37:36.924Z,4.45
2023-03-02T01:40:06.995Z,3.65
2023-03-02T01:42:41.279Z,3.03
2023-03-02T01:45:53.646Z,3.83
2023-03-02T01:48:54.597Z,4.78
2023-03-02T01:51:35.460Z,3.92
2023-03-02T01:54:10.970Z,3.08
2023-03-02T01:56:40.476Z,3.20
2023-03-02T01:59:16.602Z,3.97
2023-03-02T02:01:47.948Z,3.47
2023-03-02T02:04:16.956Z,2.15
2023-03-02T02:06:56.432Z,4.40
2023-03-02T02:09:25.252Z,4.68
2023-03-02T02:11:53.985Z,3.83
2023-03-02T02:14:22.818Z,4.13
2023-03-02T02:16:51.349Z,4.07
2023-03-02T02:19:37.997Z,3.10
2023-03-02T02:22:06.463Z,2.80
2023-03-02T02:24:46.807Z,2.75
2023-03-02T02:27:15.346Z,2.45
2023-03-02T02:29:49.820Z,2.45
2023-03-02T02:32:27.373Z,2.38
2023-03-02T02:35:16.918Z,2.92
2023-03-02T02:37:54.687Z,2.58
2023-03-02T02:40:56.224Z,2.85
2023-03-02T02:43:30.277Z,2.83
2023-03-02T02:45:59.275Z,2.10
2023-03-02T02:48:31.356Z,3.22
2023-03-02T02:51:01.614Z,3.53
2023-03-02T02:54:01.512Z,1.77
2023-03-02T02:56:37.597Z,1.88
2023-03-02T02:59:17.886Z,3.58
2023-03-02T03:01:48.022Z,3.47
2023-03-02T03:04:22.301Z,5.38
2023-03-02T03:07:06.079Z,2.33
2023-03-02T03:09:35.757Z,3.13
2023-03-02T03:12:23.698Z,3.33
2023-03-02T03:14:54.110Z,2.70
2023-03-02T03:17:23.225Z,1.85
2023-03-02T03:20:06.734Z,5.90
2023-03-02T03:22:39.010Z,2.40
2023-03-02T03:25:09.891Z,1.90
2023-03-02T03:27:38.704Z,3.15
2023-03-02T03:30:08.197Z,2.55
2023-03-02T03:32:37.620Z,2.42
2023-03-02T03:35:11.050Z,3.75
2023-03-02T03:37:40.948Z,4.78
2023-03-02T03:40:11.040Z,2.40
2023-03-02T03:42:43.137Z,4.03
2023-03-02T03:45:11.754Z,3.30
2023-03-02T03:47:41.451Z,5.30
2023-03-02T03:50:11.642Z,3.90
2023-03-02T03:52:41.241Z,4.38
2023-03-02T03:55:20.831Z,5.45
2023-03-02T03:57:52.285Z,4.35
2023-03-02T04:00:21.349Z,7.05
2023-03-02T04:03:01.957Z,5.25
2023-03-02T04:05:31.987Z,5.53
2023-03-02T04:08:03.632Z,5.68
2023-03-02T04:10:33.244Z,6.40
2023-03-02T04:13:02.813Z,8.73
2023-03-02T04:15:32.066Z,8.68
2023-03-02T04:18:02.445Z,7.82
2023-03-02T04:20:32.456Z,6.57
2023-03-02T04:23:01.537Z,6.00
2023-03-02T04:25:30.370Z,5.70
2023-03-02T04:28:04.824Z,6.00
2023-03-02T04:30:37.870Z,5.32
2023-03-02T04:33:06.627Z,6.88
2023-03-02T04:35:36.334Z,5.97
2023-03-02T04:38:05.781Z,8.25
2023-03-02T04:40:34.475Z,8.05
2023-03-02T04:43:03.195Z,9.43
2023-03-02T04:45:31.617Z,8.27
2023-03-02T04:48:00.344Z,7.18
2023-03-02T04:50:28.754Z,8.05
2023-03-02T04:52:57.907Z,8.07
2023-03-02T04:55:27.172Z,8.20
2023-03-02T04:57:55.959Z,9.65
2023-03-02T05:00:25.357Z,10.18
2023-03-02T05:02:54.103Z,8.05
2023-03-02T05:05:24.619Z,8.43
2023-03-02T05:07:53.573Z,10.40
2023-03-02T05:10:22.825Z,9.10
2023-03-02T05:12:55.186Z,8.55
2023-03-02T05:15:35.046Z,8.93
2023-03-02T05:18:05.293Z,9.00
2023-03-02T05:20:34.603Z,8.60
2023-03-02T05:23:06.438Z,8.32
2023-03-02T05:25:35.967Z,10.90
2023-03-02T05:28:05.367Z,8.82
2023-03-02T05:30:37.877Z,9.07
2023-03-02T05:33:06.883Z,9.57
2023-03-02T05:35:35.526Z,9.10
2023-03-02T05:38:05.363Z,8.65
2023-03-02T05:40:33.891Z,9.18
2023-03-02T05:43:02.973Z,9.75
2023-03-02T05:45:37.209Z,9.10
2023-03-02T05:48:06.566Z,8.32
2023-03-02T05:50:35.193Z,9.35
2023-03-02T05:53:04.164Z,9.52
2023-03-02T05:55:37.374Z,7.90
2023-03-02T05:58:15.487Z,7.43
2023-03-02T06:00:45.257Z,11.40
2023-03-02T06:03:14.226Z,8.50
2023-03-02T06:05:42.892Z,8.35
2023-03-02T06:08:12.077Z,9.13
2023-03-02T06:10:40.587Z,8.88
2023-03-02T06:13:09.509Z,9.98
2023-03-02T06:15:39.983Z,9.65
2023-03-02T06:18:08.841Z,13.10
2023-03-02T06:20:37.297Z,10.38
2023-03-02T06:23:06.049Z,8.82
2023-03-02T06:25:36.178Z,9.73
2023-03-02T06:28:05.136Z,10.02
2023-03-02T06:30:33.623Z,10.23
2023-03-02T06:33:02.597Z,9.23
2023-03-02T06:35:31.387Z,8.90
2023-03-02T06:38:00.303Z,11.85
2023-03-02T06:40:28.813Z,7.75
2023-03-02T06:43:01.330Z,11.63
2023-03-02T06:45:34.109Z,9.30
2023-03-02T06:48:03.070Z,11.70
2023-03-02T06:50:31.689Z,10.00
2023-03-02T06:53:00.679Z,10.00
2023-03-02T06:55:29.236Z,9.48
2023-03-02T06:57:58.271Z,10.05
2023-03-02T07:00:28.500Z,10.02
2023-03-02T07:02:57.520Z,9.40
2023-03-02T07:05:26.139Z,9.73
2023-03-02T07:07:55.009Z,12.95
2023-03-02T07:10:23.481Z,12.27
2023-03-02T07:12:53.040Z,11.60
2023-03-02T07:15:21.966Z,10.95
2023-03-02T07:17:50.967Z,13.73
2023-03-02T07:20:19.941Z,11.50
2023-03-02T07:22:48.848Z,9.77
2023-03-02T07:25:17.395Z,11.80
2023-03-02T07:27:46.505Z,10.65
2023-03-02T07:30:15.469Z,13.07
2023-03-02T07:32:44.394Z,13.70
2023-03-02T07:35:12.903Z,10.38
2023-03-02T07:37:41.733Z,9.10
2023-03-02T07:40:12.246Z,10.15
2023-03-02T07:42:41.182Z,10.80
2023-03-02T07:45:11.540Z,9.40
2023-03-02T07:47:40.367Z,9.57
2023-03-02T07:50:09.888Z,8.98
2023-03-02T07:52:38.727Z,11.60
2023-03-02T07:55:07.599Z,14.18
2023-03-02T07:57:36.458Z,9.30
2023-03-02T08:00:05.928Z,10.18
2023-03-02T08:02:41.702Z,9.07
2023-03-02T08:05:11.473Z,10.30
2023-03-02T08:07:41.417Z,13.40
2023-03-02T08:10:11.344Z,11.93
2023-03-02T08:12:40.353Z,11.05
2023-03-02T08:15:09.804Z,9.57
2023-03-02T08:17:38.996Z,9.32
2023-03-02T08:20:08.497Z,12.57
2023-03-02T08:22:37.401Z,10.68
2023-03-02T08:25:07.554Z,15.50
2023-03-02T08:27:36.463Z,16.30
2023-03-02T08:30:05.743Z,15.23
2023-03-02T08:32:35.115Z,10.90
2023-03-02T08:35:04.723Z,10.43
2023-03-02T08:37:34.325Z,13.63
2023-03-02T08:40:02.868Z,8.82
2023-03-02T08:42:31.672Z,13.60
2023-03-02T08:45:00.219Z,11.85
2023-03-02T08:47:29.371Z,14.98
2023-03-02T08:49:57.786Z,11.57
2023-03-02T08:52:26.668Z,12.15
2023-03-02T08:54:55.222Z,11.82
2023-03-02T08:57:24.244Z,15.48
2023-03-02T08:59:52.896Z,11.07
2023-03-02T09:02:21.769Z,10.20
2023-03-02T09:04:50.257Z,12.13
2023-03-02T09:07:19.150Z,13.95
2023-03-02T09:09:47.622Z,9.27
2023-03-02T09:12:16.761Z,8.07
2023-03-02T09:14:45.825Z,15.38
2023-03-02T09:17:16.059Z,10.77
2023-03-02T09:19:44.817Z,18.23
2023-03-02T09:22:13.803Z,11.13
2023-03-02T09:24:42.519Z,15.13
2023-03-02T09:27:11.440Z,10.23
2023-03-02T09:29:40.271Z,12.43
2023-03-02T09:32:09.763Z,7.10
2023-03-02T09:34:38.327Z,11.23
2023-03-02T09:37:07.237Z,14.50
2023-03-02T09:39:37.032Z,10.32
2023-03-02T09:42:19.624Z,9.35
2023-03-02T09:45:09.958Z,11.38
2023-03-02T09:48:06.985Z,8.18
2023-03-02T09:50:38.215Z,14.35
2023-03-02T09:54:00.142Z,8.63
2023-03-02T09:56:28.820Z,7.50
2023-03-02T09:59:24.727Z,12.70
2023-03-02T10:02:04.290Z,8.85
2023-03-02T10:04:49.488Z,11.32
2023-03-02T10:07:24.693Z,8.95
2023-03-02T10:09:54.684Z,11.07
2023-03-02T10:13:00.271Z,11.07
2023-03-02T10:16:05.418Z,12.05
2023-03-02T10:19:12.067Z,8.18
2023-03-02T10:21:47.880Z,13.40
2023-03-02T10:24:33.903Z,10.15
2023-03-02T10:27:27.196Z,9.60
2023-03-02T10:29:59.713Z,8.80
2023-03-02T10:32:47.879Z,8.98
2023-03-02T10:35:23.296Z,11.98
2023-03-02T10:37:57.798Z,10.85
2023-03-02T10:40:38.279Z,9.68
2023-03-02T10:43:12.198Z,13.82
2023-03-02T10:45:40.757Z,16.38
2023-03-02T10:48:13.065Z,19.98
2023-03-02T10:50:43.035Z,14.02
2023-03-02T10:53:18.697Z,15.88
2023-03-02T10:55:56.334Z,8.82
2023-03-02T10:58:34.476Z,18.23
2023-03-02T11:01:04.076Z,9.30
2023-03-02T11:03:33.282Z,8.05
2023-03-02T11:06:21.184Z,14.43
2023-03-02T11:09:07.087Z,16.08
2023-03-02T11:11:36.173Z,12.77
2023-03-02T11:14:16.388Z,13.43
2023-03-02T11:16:45.015Z,10.25
2023-03-02T11:19:18.365Z,17.48
2023-03-02T11:22:15.257Z,12.98
2023-03-02T11:24:51.718Z,9.25
2023-03-02T11:27:25.328Z,11.85
2023-03-02T11:29:57.354Z,13.18
2023-03-02T11:32:57.870Z,11.98
2023-03-02T11:35:50.924Z,13.13
2023-03-02T11:38:24.399Z,14.32
2023-03-02T11:41:06.941Z,15.65
2023-03-02T11:43:35.641Z,14.88
2023-03-02T11:46:13.925Z,15.05
2023-03-02T11:48:50.504Z,12.43
2023-03-02T11:51:23.737Z,12.48
2023-03-02T11:54:13.486Z,18.38
2023-03-02T11:56:42.461Z,13.90
2023-03-02T11:59:19.220Z,17.23
2023-03-02T12:01:51.779Z,15.48
2023-03-02T12:04:35.900Z,10.85
2023-03-02T12:07:23.476Z,15.73
2023-03-02T12:10:30.750Z,15.07
2023-03-02T12:13:23.763Z,23.92
2023-03-02T12:15:52.578Z,20.00
2023-03-02T12:18:21.540Z,22.58
2023-03-02T12:21:02.304Z,19.95
2023-03-02T12:23:36.454Z,14.43
2023-03-02T12:26:31.924Z,16.25
2023-03-02T12:29:11.831Z,16.40
2023-03-02T12:31:54.733Z,13.00
2023-03-02T12:37:42.419Z,10.50
2023-03-02T12:40:35.303Z,12.30
2023-03-02T12:43:33.292Z,15.57
2023-03-02T12:46:30.685Z,12.23
2023-03-02T12:49:43.642Z,19.67
2023-03-02T12:52:24.111Z,10.43
2023-03-02T12:55:16.050Z,12.40
2023-03-02T12:57:56.355Z,18.02
2023-03-02T13:00:31.046Z,10.18
2023-03-02T13:03:02.246Z,12.35
2023-03-02T13:05:33.558Z,20.25
2023-03-02T13:08:17.840Z,13.02
2023-03-02T13:10:57.884Z,22.27
2023-03-02T13:13:37.869Z,11.40
2023-03-02T13:16:24.060Z,10.10
2023-03-02T13:18:57.259Z,10.73
2023-03-02T13:21:34.225Z,16.23
2023-03-02T13:24:02.969Z,11.32
2023-03-02T13:26:36.377Z,16.08
2023-03-02T13:29:14.872Z,14.48
2023-03-02T13:31:43.339Z,13.20
2023-03-02T13:34:34.010Z,8.57
2023-03-02T13:37:02.374Z,7.82
2023-03-02T13:39:34.599Z,8.57
2023-03-02T13:42:03.621Z,10.13
2023-03-02T13:44:35.857Z,9.27
2023-03-02T13:47:04.299Z,11.70
2023-03-02T13:49:35.445Z,6.57
2023-03-02T13:52:08.417Z,9.85
2023-03-02T13:54:37.773Z,15.68
2023-03-02T13:57:06.250Z,6.65
2023-03-02T13:59:36.794Z,6.30
2023-03-02T14:02:30.294Z,12.43
2023-03-02T14:04:59.205Z,6.47
2023-03-02T14:07:27.855Z,14.10
2023-03-02T14:09:57.592Z,7.53
2023-03-02T14:12:31.209Z,8.50
2023-03-02T14:15:02.149Z,17.92
2023-03-02T14:17:30.834Z,10.65
2023-03-02T14:19:59.606Z,10.02
2023-03-02T14:22:30.414Z,7.18
2023-03-02T14:24:59.177Z,14.85
2023-03-02T14:27:29.619Z,9.13
2023-03-02T14:29:58.416Z,18.83
2023-03-02T14:32:27.038Z,20.90
2023-03-02T14:34:55.776Z,17.65
2023-03-02T14:37:26.949Z,15.55
2023-03-02T14:39:55.818Z,19.83
2023-03-02T14:42:24.358Z,14.68
2023-03-02T14:44:53.557Z,11.80
2023-03-02T14:47:22.128Z,17.65
2023-03-02T14:49:50.883Z,15.85
2023-03-02T14:52:53.310Z,13.80
2023-03-02T14:55:26.987Z,19.48
2023-03-02T14:58:01.409Z,10.80
2023-03-02T15:00:30.397Z,17.20
2023-03-02T15:02:59.382Z,16.17
2023-03-02T15:05:28.266Z,17.45
2023-03-02T15:07:58.689Z,21.45
2023-03-02T15:10:27.932Z,17.27
2023-03-02T15:12:56.564Z,14.82
2023-03-02T15:15:26.802Z,15.63
2023-03-02T15:17:55.223Z,12.95
2023-03-02T15:20:24.202Z,20.08
2023-03-02T15:22:53.568Z,15.65
2023-03-02T15:25:24.188Z,22.17
2023-03-02T15:27:53.408Z,16.33
2023-03-02T15:30:23.232Z,12.77
2023-03-02T15:32:53.362Z,14.50
2023-03-02T15:35:22.106Z,8.40
2023-03-02T15:37:50.501Z,11.38
2023-03-02T15:40:19.631Z,13.18
2023-03-02T15:42:48.250Z,13.98
2023-03-02T15:45:17.105Z,14.43
2023-03-02T15:47:45.493Z,9.82
2023-03-02T15:50:14.539Z,20.40
2023-03-02T15:52:43.009Z,8.13
2023-03-02T15:55:11.880Z,12.00
2023-03-02T15:57:40.365Z,12.02
2023-03-02T16:00:11.895Z,13.13
2023-03-02T16:02:41.003Z,10.27
2023-03-02T16:05:10.638Z,10.18
2023-03-02T16:07:39.147Z,10.57
2023-03-02T16:10:08.787Z,9.70
2023-03-02T16:12:37.230Z,14.27
2023-03-02T16:15:06.774Z,9.18
2023-03-02T16:17:35.183Z,8.38
2023-03-02T16:20:04.465Z,15.43
2023-03-02T16:22:32.894Z,15.52
2023-03-02T16:25:01.675Z,14.38
2023-03-02T16:27:30.632Z,13.30
2023-03-02T16:29:59.345Z,16.52
2023-03-02T16:32:28.128Z,17.05
2023-03-02T16:34:56.916Z,14.10
2023-03-02T16:37:25.414Z,16.25
2023-03-02T16:39:54.233Z,14.57
2023-03-02T16:42:22.928Z,16.45
2023-03-02T16:44:51.844Z,13.57
2023-03-02T16:47:20.343Z,25.13
2023-03-02T16:49:49.163Z,12.00
2023-03-02T16:52:17.716Z,18.02
2023-03-02T16:54:47.294Z,17.05
2023-03-02T16:57:15.857Z,16.70
2023-03-02T16:59:44.726Z,16.48
2023-03-02T17:02:14.217Z,20.60
2023-03-02T17:04:43.238Z,15.40
2023-03-02T17:07:11.918Z,14.60
2023-03-02T17:09:41.647Z,13.23
2023-03-02T17:12:10.339Z,17.65
2023-03-02T17:14:39.361Z,16.05
2023-03-02T17:17:08.197Z,17.25
2023-03-02T17:19:37.326Z,14.10
2023-03-02T17:22:06.042Z,15.75
2023-03-02T17:24:35.303Z,16.10
2023-03-02T17:27:05.413Z,17.05
2023-03-02T17:29:37.702Z,16.67
2023-03-02T17:32:06.509Z,21.92
2023-03-02T17:34:35.740Z,22.27
2023-03-02T17:37:04.402Z,17.33
2023-03-02T17:39:33.453Z,14.35
2023-03-02T17:42:02.832Z,16.48
2023-03-02T17:44:35.016Z,17.40
2023-03-02T17:47:08.448Z,15.60
2023-03-02T17:49:41.193Z,21.15
2023-03-02T17:52:09.843Z,20.53
2023-03-02T17:54:38.907Z,21.17
2023-03-02T17:57:07.996Z,26.63
2023-03-02T17:59:37.265Z,19.77
2023-03-02T18:02:06.232Z,26.10
2023-03-02T18:04:35.525Z,24.05
2023-03-02T18:07:04.093Z,29.20
2023-03-02T18:09:33.102Z,18.85
2023-03-02T18:12:03.022Z,24.23
2023-03-02T18:14:33.644Z,21.77
2023-03-02T18:17:05.079Z,19.38
2023-03-02T18:19:34.266Z,18.17
2023-03-02T18:22:03.223Z,18.88
2023-03-02T18:24:32.353Z,20.20
2023-03-02T18:27:01.262Z,22.67
2023-03-02T18:29:30.331Z,20.55
2023-03-02T18:31:59.822Z,21.17
2023-03-02T18:34:29.184Z,20.88
2023-03-02T18:36:57.831Z,19.85
2023-03-02T18:39:26.751Z,22.20
2023-03-02T18:41:55.418Z,21.60
2023-03-02T18:44:28.201Z,17.25
2023-03-02T18:46:57.539Z,23.35
2023-03-02T18:49:26.990Z,24.80
2023-03-02T18:51:56.939Z,24.40
2023-03-02T18:54:25.989Z,20.38
2023-03-02T18:56:54.622Z,19.38
2023-03-02T18:59:23.620Z,19.48
2023-03-02T19:01:52.280Z,28.58
2023-03-02T19:04:26.596Z,21.30
2023-03-02T19:06:56.454Z,20.67
2023-03-02T19:09:25.372Z,20.70
2023-03-02T19:11:54.312Z,19.70
2023-03-02T19:14:23.416Z,19.05
2023-03-02T19:16:52.235Z,24.70
2023-03-02T19:19:21.333Z,26.00
2023-03-02T19:21:50.031Z,21.17
2023-03-02T19:24:19.045Z,21.42
2023-03-02T19:26:47.696Z,22.23
2023-03-02T19:29:16.697Z,20.63
2023-03-02T19:31:45.404Z,23.70
2023-03-02T19:34:14.369Z,21.20
2023-03-02T19:36:44.031Z,26.10
2023-03-02T19:39:13.102Z,18.00
2023-03-02T19:41:41.682Z,19.45
2023-03-02T19:44:12.919Z,26.65
2023-03-02T19:46:41.807Z,26.10
2023-03-02T19:49:10.983Z,19.02
2023-03-02T19:51:39.823Z,22.08
2023-03-02T19:54:09.242Z,21.55
2023-03-02T19:56:40.264Z,25.88
2023-03-02T19:59:10.592Z,19.85
2023-03-02T20:01:39.632Z,22.92
2023-03-02T20:04:11.061Z,23.95
2023-03-02T20:06:41.231Z,23.17
2023-03-02T20:09:10.401Z,20.65
2023-03-02T20:11:39.081Z,17.52
2023-03-02T20:14:08.080Z,23.75
2023-03-02T20:16:38.998Z,22.25
2023-03-02T20:19:08.210Z,21.30
2023-03-02T20:21:38.489Z,19.05
2023-03-02T20:24:07.880Z,20.77
2023-03-02T20:26:36.540Z,19.33
2023-03-02T20:29:05.856Z,21.65
2023-03-02T20:31:35.601Z,21.42
2023-03-02T20:34:07.250Z,21.02
2023-03-02T20:36:36.910Z,24.00
2023-03-02T20:39:21.093Z,19.50
2023-03-02T20:41:52.213Z,22.90
2023-03-02T20:44:23.570Z,20.77
2023-03-02T20:46:59.537Z,20.58
2023-03-02T20:49:31.593Z,21.38
2023-03-02T20:52:02.062Z,18.85
2023-03-02T20:54:35.644Z,22.65
2023-03-02T20:57:05.825Z,24.00
2023-03-02T20:59:37.138Z,26.75
2023-03-02T21:02:06.266Z,21.23
2023-03-02T21:04:36.345Z,18.92
2023-03-02T21:07:04.971Z,22.50
2023-03-02T21:09:35.133Z,21.13
2023-03-02T21:12:08.964Z,22.33
2023-03-02T21:14:41.071Z,29.70
2023-03-02T21:17:10.368Z,20.67
2023-03-02T21:19:39.194Z,22.55
2023-03-02T21:22:07.744Z,22.60
2023-03-02T21:24:36.676Z,21.65
2023-03-02T21:27:07.422Z,23.60
2023-03-02T21:29:36.200Z,22.23
2023-03-02T21:32:06.273Z,21.48
2023-03-02T21:34:38.463Z,21.63
2023-03-02T21:37:07.271Z,17.80
2023-03-02T21:39:36.168Z,20.30
2023-03-02T21:42:04.880Z,18.35
2023-03-02T21:44:33.784Z,20.25
2023-03-02T21:47:02.408Z,14.98
2023-03-02T21:49:32.229Z,20.30
2023-03-02T21:52:00.650Z,17.83
2023-03-02T21:54:29.688Z,18.17
2023-03-02T21:56:58.187Z,19.80
2023-03-02T21:59:26.955Z,22.10
2023-03-02T22:01:55.452Z,19.83
2023-03-02T22:04:24.323Z,20.92
2023-03-02T22:06:52.909Z,20.10
2023-03-02T22:09:22.437Z,19.00
2023-03-02T22:11:50.948Z,18.77
2023-03-02T22:14:19.728Z,19.88
2023-03-02T22:16:48.391Z,20.50
2023-03-02T22:19:28.146Z,23.83
2023-03-02T22:22:01.059Z,18.30
2023-03-02T22:24:31.528Z,18.33
2023-03-02T22:27:19.006Z,16.15
2023-03-02T22:29:48.275Z,19.08
2023-03-02T22:32:30.912Z,17.40
2023-03-02T22:35:02.180Z,21.27
2023-03-02T22:37:33.965Z,20.50
2023-03-02T22:40:30.528Z,20.98
2023-03-02T22:43:31.324Z,17.13
2023-03-02T22:46:17.728Z,16.30
2023-03-02T22:48:48.442Z,18.80
2023-03-02T22:51:27.292Z,18.80
2023-03-02T22:53:58.482Z,19.90
2023-03-02T22:56:38.452Z,18.23
2023-03-02T22:59:26.989Z,18.77
2023-03-02T23:02:01.244Z,15.38
2023-03-02T23:04:38.279Z,16.65
2023-03-02T23:07:18.354Z,18.63
2023-03-02T23:09:47.292Z,18.67
2023-03-02T23:12:20.029Z,17.25
2023-03-02T23:15:00.267Z,15.57
2023-03-02T23:17:37.196Z,15.85
2023-03-02T23:20:08.583Z,17.05
2023-03-02T23:22:39.235Z,16.10
2023-03-02T23:25:08.946Z,18.02
2023-03-02T23:27:37.732Z,18.33
2023-03-02T23:30:06.777Z,16.58
2023-03-02T23:32:36.258Z,16.17
2023-03-02T23:35:05.049Z,18.80
2023-03-02T23:37:33.758Z,17.02
2023-03-02T23:40:02.219Z,21.42
2023-03-02T23:42:31.019Z,15.95
2023-03-02T23:44:59.599Z,16.05
2023-03-02T23:47:28.428Z,13.07
2023-03-02T23:49:56.968Z,16.95
2023-03-02T23:52:26.229Z,14.27
2023-03-02T23:54:54.687Z,18.00
2023-03-02T23:57:23.556Z,13.30
2023-03-02T23:59:52.055Z,15.85
